Time;durP1;ratioP1;P1;durP2;ratioP2;P2;SDS_P1;SDS_P2;PMS_P1;PMS_P2;Temp;Humidity;BMP_temperature;BMP_pressure;BME280_temperature;BME280_humidity;BME280_pressure;Samples;Min_cycle;Max_cycle;Signal;HPM_P1;HPM_P2
2022/09/03 00:00:26;;;;;;;3.35;1.98;;;;;;;18.25;47.23;101232.22;5198564;28;20048;-41
2022/09/03 00:03:04;;;;;;;6.68;2.00;;;;;;;18.22;47.31;101229.91;5200886;28;20494;-46
2022/09/03 00:05:40;;;;;;;4.53;2.10;;;;;;;18.20;47.18;101221.25;5198845;28;20118;-50
2022/09/03 00:08:22;;;;;;;9.00;2.47;;;;;;;18.14;47.36;101219.34;5203609;28;20510;-43
2022/09/03 00:11:22;;;;;;;2.25;1.60;;;;;;;18.16;47.41;101220.81;5201057;28;20503;-42
2022/09/03 00:14:02;;;;;;;6.80;1.98;;;;;;;18.07;47.43;101221.13;5190504;28;20037;-42
2022/09/03 00:16:45;;;;;;;2.38;1.77;;;;;;;18.02;47.50;101211.00;5206176;28;20643;-45
2022/09/03 00:19:21;;;;;;;5.50;1.60;;;;;;;18.05;47.53;101221.31;5200683;28;20588;-42
2022/09/03 00:21:59;;;;;;;4.53;1.80;;;;;;;17.97;47.57;101214.25;5200354;28;20127;-42
2022/09/03 00:24:38;;;;;;;7.97;1.95;;;;;;;18.00;47.66;101214.91;5198048;28;20091;-42
2022/09/03 00:27:16;;;;;;;5.20;1.70;;;;;;;17.97;47.75;101214.25;5202060;28;20044;-39
2022/09/03 00:30:23;;;;;;;7.32;2.17;;;;;;;17.94;47.74;101214.63;5202227;28;20596;-41
2022/09/03 00:33:05;;;;;;;1.95;1.85;;;;;;;17.89;47.87;101214.34;5198619;28;20453;-42
2022/09/03 00:35:45;;;;;;;5.85;3.03;;;;;;;17.74;47.92;101193.00;5199025;28;20131;-40
2022/09/03 00:38:17;;;;;;;3.58;1.90;;;;;;;17.83;48.03;101212.44;5199542;28;20048;-43
2022/09/03 00:41:10;;;;;;;11.82;2.05;;;;;;;17.78;48.05;101212.19;5202218;28;20048;-43
2022/09/03 00:44:00;;;;;;;13.70;2.67;;;;;;;17.75;48.15;101212.53;5198926;28;21386;-42
2022/09/03 00:46:41;;;;;;;3.35;1.58;;;;;;;17.71;48.15;101205.88;5201165;28;20133;-40
2022/09/03 00:49:28;;;;;;;2.65;1.50;;;;;;;17.68;47.92;101203.59;5199967;28;20219;-41
2022/09/03 00:52:12;;;;;;;5.68;2.42;;;;;;;17.63;48.29;101203.34;5201371;28;20086;-43
2022/09/03 00:55:07;;;;;;;2.92;1.70;;;;;;;17.62;48.21;101207.00;5213419;28;20052;-40
2022/09/03 00:57:51;;;;;;;4.25;1.48;;;;;;;17.59;48.22;101204.72;5198903;28;20056;-41
2022/09/03 01:00:24;;;;;;;5.95;2.67;;;;;;;17.57;48.40;101202.25;5200461;28;20377;-40
2022/09/03 01:03:07;;;;;;;4.10;2.20;;;;;;;17.52;48.42;101202.78;5200127;28;20427;-40
2022/09/03 01:05:52;;;;;;;;;;;;;;;17.50;48.70;101204.84;5202050;28;20381;-49
2022/09/03 01:08:45;;;;;;;4.95;2.20;;;;;;;17.36;48.75;101186.97;5195305;28;19928;-40
2022/09/03 01:11:26;;;;;;;5.70;1.80;;;;;;;17.43;48.70;101203.06;5206821;28;20052;-40
2022/09/03 01:14:09;;;;;;;4.30;1.77;;;;;;;17.40;48.89;101203.44;5199835;28;20353;-45
2022/09/03 01:16:49;;;;;;;9.40;2.55;;;;;;;17.38;48.84;101208.16;5206252;28;20097;-38
2022/09/03 01:19:53;;;;;;;3.22;2.28;;;;;;;17.37;48.94;101209.16;5204513;28;20372;-43
2022/09/03 01:23:38;;;;;;;6.03;2.17;;;;;;;17.32;48.87;101206.25;5199359;28;20141;-44
2022/09/03 01:26:49;;;;;;;4.07;1.60;;;;;;;17.27;49.05;101204.09;5100773;28;20129;-43
2022/09/03 01:29:28;;;;;;;6.47;1.83;;;;;;;17.20;49.09;101208.53;5100614;28;20487;-38
2022/09/03 01:32:10;;;;;;;7.57;2.38;;;;;;;17.17;49.13;101214.25;5202532;28;20145;-42
2022/09/03 01:34:54;;;;;;;8.68;2.00;;;;;;;17.12;49.44;101211.28;5203397;28;20061;-42
2022/09/03 01:37:33;;;;;;;;;;;;;;;17.07;49.44;101214.53;5203296;28;20098;-40
2022/09/03 01:40:15;;;;;;;4.88;1.83;;;;;;;17.04;49.36;101209.53;5209598;28;19978;-38
2022/09/03 01:43:03;;;;;;;7.40;2.83;;;;;;;16.94;49.45;101199.16;5203841;28;20114;-41
2022/09/03 01:45:50;;;;;;;2.10;1.70;;;;;;;16.97;49.61;101209.47;5203200;28;20106;-41
2022/09/03 01:48:40;;;;;;;8.43;1.83;;;;;;;16.92;49.83;101208.34;5214733;28;20367;-42
2022/09/03 01:51:22;;;;;;;5.63;1.67;;;;;;;16.85;49.85;101197.56;5203782;28;20052;-40
2022/09/03 01:54:30;;;;;;;2.85;1.65;;;;;;;16.86;49.84;101207.22;5197053;28;20092;-40
2022/09/03 01:57:49;;;;;;;9.25;1.85;;;;;;;16.84;50.11;101209.22;5188885;28;20500;-42
2022/09/03 02:00:22;;;;;;;2.15;1.65;;;;;;;16.78;50.27;101201.97;5117601;28;20044;-45
2022/09/03 02:02:56;;;;;;;3.60;1.70;;;;;;;16.79;50.31;101211.63;5118615;28;20494;-39
2022/09/03 02:05:29;;;;;;;3.55;2.00;;;;;;;16.80;50.15;101202.63;5170017;28;20567;-42
2022/09/03 02:08:05;;;;;;;2.92;2.00;;;;;;;16.74;50.25;101195.31;5205305;28;20110;-43
2022/09/03 02:10:41;;;;;;;1.83;1.73;;;;;;;16.76;50.34;101204.00;5196869;28;20048;-40
2022/09/03 02:13:18;;;;;;;2.45;1.88;;;;;;;16.78;50.38;101209.97;5205968;28;20037;-44
2022/09/03 02:15:53;;;;;;;6.80;2.10;;;;;;;16.77;50.29;101200.31;5204696;28;20098;-40
2022/09/03 02:18:33;;;;;;;5.60;1.88;;;;;;;16.71;50.28;101196.50;5201969;28;20575;-39
2022/09/03 02:21:06;;;;;;;2.70;1.42;;;;;;;16.73;50.56;101193.66;5204287;28;20427;-42
2022/09/03 02:23:40;;;;;;;5.65;2.33;;;;;;;16.76;50.90;101191.47;5203572;28;20409;-43
2022/09/03 02:26:19;;;;;;;5.72;1.85;;;;;;;16.68;50.99;101180.84;5203777;28;20125;-38
2022/09/03 02:28:53;;;;;;;6.72;2.17;;;;;;;16.74;51.22;101189.97;5204954;28;20500;-41
2022/09/03 02:31:27;;;;;;;2.08;1.70;;;;;;;16.74;51.14;101187.31;5201982;28;20472;-41
2022/09/03 02:34:01;;;;;;;3.47;1.67;;;;;;;16.73;50.92;101191.00;5204073;28;20520;-46
2022/09/03 02:36:37;;;;;;;4.00;2.05;;;;;;;16.73;51.04;101188.31;5206066;28;20053;-42
2022/09/03 02:39:09;;;;;;;4.50;2.30;;;;;;;16.74;51.22;101184.63;5201124;28;20084;-42
2022/09/03 02:41:42;;;;;;;5.45;1.75;;;;;;;16.62;51.36;101173.56;5204448;28;20052;-43
2022/09/03 02:44:22;;;;;;;;;;;;;;;16.70;51.11;101180.69;5202377;28;20072;-40
2022/09/03 02:46:59;;;;;;;2.17;1.83;;;;;;;16.68;51.28;101188.84;5198161;28;19986;-43
2022/09/03 02:49:33;;;;;;;1.52;1.42;;;;;;;16.68;51.29;101182.69;5201827;28;20516;-44
2022/09/03 02:52:11;;;;;;;6.90;2.63;;;;;;;16.58;51.46;101169.63;5201573;28;20114;-45
2022/09/03 02:54:45;;;;;;;3.40;2.00;;;;;;;16.57;51.53;101176.81;5198955;28;20060;-42
2022/09/03 02:57:18;;;;;;;2.30;1.80;;;;;;;16.57;51.36;101176.81;5203945;28;20134;-44
2022/09/03 02:59:50;;;;;;;;;;;;;;;16.55;51.54;101178.81;5206244;28;20127;-40
2022/09/03 03:06:12;;;;;;;6.03;1.88;;;;;;;16.44;51.61;101170.41;5206860;28;20526;-42
2022/09/03 03:08:45;;;;;;;8.13;2.13;;;;;;;16.48;51.48;101182.38;5206642;28;20359;-44
2022/09/03 03:11:18;;;;;;;;;;;;;;;16.46;51.33;101187.88;5206980;28;20496;-41
2022/09/03 03:13:51;;;;;;;2.45;1.33;;;;;;;16.46;51.22;101193.22;5206462;28;20011;-41
2022/09/03 03:16:23;;;;;;;2.03;1.60;;;;;;;16.37;51.16;101172.97;5203744;28;20135;-42
2022/09/03 03:18:57;;;;;;;3.85;1.77;;;;;;;16.41;51.33;101176.94;5205679;28;20060;-46
2022/09/03 03:21:31;;;;;;;2.47;1.65;;;;;;;16.39;51.39;101178.97;5214926;28;20044;-44
2022/09/03 03:24:04;;;;;;;3.85;2.40;;;;;;;16.37;51.50;101176.47;5225130;28;20067;-44
2022/09/03 03:26:40;;;;;;;3.50;1.98;;;;;;;16.42;51.51;101191.94;5211512;28;20122;-40
2022/09/03 03:29:17;;;;;;;6.53;1.80;;;;;;;16.37;51.57;101173.78;5206167;28;20071;-42
2022/09/03 03:31:49;;;;;;;4.00;1.80;;;;;;;16.37;51.59;101178.31;5206310;28;20040;-43
2022/09/03 03:34:22;;;;;;;3.80;1.95;;;;;;;16.42;51.52;101180.44;5208276;28;20436;-48
2022/09/03 03:36:56;;;;;;;4.40;2.17;;;;;;;16.39;51.56;101183.47;5202690;28;20072;-42
2022/09/03 03:39:28;;;;;;;8.93;1.95;;;;;;;16.40;51.55;101185.13;5219810;28;20071;-43
2022/09/03 03:42:01;;;;;;;5.03;1.90;;;;;;;16.34;51.49;101181.31;5217726;28;20483;-41
2022/09/03 03:44:33;;;;;;;4.95;1.90;;;;;;;16.37;51.54;101180.97;5205793;28;20045;-41
2022/09/03 03:47:06;;;;;;;8.27;2.17;;;;;;;16.34;51.63;101182.16;5206039;28;20037;-41
2022/09/03 03:49:38;;;;;;;6.93;1.70;;;;;;;16.32;51.51;101178.00;5206003;28;20441;-39
2022/09/03 03:52:12;;;;;;;2.25;1.63;;;;;;;16.25;51.61;101169.06;5204900;28;20059;-41
2022/09/03 03:54:45;;;;;;;5.72;2.10;;;;;;;16.28;51.68;101182.03;5204898;28;20060;-38
2022/09/03 03:57:18;;;;;;;5.75;1.90;;;;;;;16.25;51.70;101185.06;5205817;28;20504;-39
2022/09/03 03:59:51;;;;;;;9.88;2.28;;;;;;;16.20;51.77;101184.78;5204828;28;20048;-44
2022/09/03 04:02:23;;;;;;;4.25;1.73;;;;;;;16.24;51.48;101188.75;5202056;28;20036;-39
2022/09/03 04:04:56;;;;;;;3.20;2.60;;;;;;;16.25;51.70;101193.06;5205400;28;20040;-44
2022/09/03 04:07:30;;;;;;;8.63;2.53;;;;;;;16.21;51.68;101173.13;5204711;28;20490;-42
2022/09/03 04:10:02;;;;;;;5.20;2.50;;;;;;;16.21;51.63;101170.44;5201236;28;20443;-39
2022/09/03 04:12:34;;;;;;;4.00;2.58;;;;;;;16.23;51.87;101169.25;5198554;28;20123;-41
2022/09/03 04:15:08;;;;;;;2.63;2.08;;;;;;;16.31;51.50;101179.03;5200494;28;20370;-41
2022/09/03 04:17:40;;;;;;;;;;;;;;;16.31;51.55;101176.34;5200242;28;20402;-40
2022/09/03 04:20:12;;;;;;;9.45;3.38;;;;;;;16.30;51.46;101180.03;5201015;28;20261;-41
2022/09/03 04:22:46;;;;;;;3.25;1.92;;;;;;;16.29;51.62;101178.34;5207226;28;20423;-39
2022/09/03 04:25:19;;;;;;;9.38;2.75;;;;;;;16.27;51.60;101180.38;5195890;28;20153;-43
2022/09/03 04:27:52;;;;;;;6.07;3.13;;;;;;;16.29;51.61;101178.34;5195492;28;20048;-41
2022/09/03 04:34:12;;;;;;;3.58;2.70;;;;;;;16.23;51.32;101161.28;5198340;28;20060;-44
2022/09/03 04:36:45;;;;;;;5.28;2.90;;;;;;;16.22;51.63;101167.59;5196487;28;20045;-41
2022/09/03 04:39:19;;;;;;;17.85;3.20;;;;;;;16.26;51.67;101168.06;5200354;28;20377;-44
2022/09/03 04:41:52;;;;;;;8.27;2.80;;;;;;;16.24;51.53;101170.91;5197993;28;20181;-42
2022/09/03 04:45:02;;;;;;;5.97;3.50;;;;;;;16.23;51.52;101168.41;5201409;28;20555;-42
2022/09/03 04:47:35;;;;;;;16.17;2.92;;;;;;;16.22;51.70;101169.44;5199909;28;20500;-43
2022/09/03 04:50:09;;;;;;;7.97;2.83;;;;;;;16.24;51.24;101175.41;5206893;28;20718;-39
2022/09/03 04:52:41;;;;;;;4.53;2.83;;;;;;;16.26;51.60;101170.72;5200548;28;20149;-41
2022/09/03 04:55:15;;;;;;;6.25;3.67;;;;;;;16.27;51.49;101172.41;5199626;28;20080;-43
2022/09/03 04:57:48;;;;;;;5.05;3.28;;;;;;;16.28;51.36;101168.72;5198212;28;20480;-44
2022/09/03 05:00:21;;;;;;;6.97;3.38;;;;;;;16.29;51.32;101173.88;5197903;28;20123;-45
2022/09/03 05:04:08;;;;;;;11.32;4.60;;;;;;;16.32;51.19;101167.34;5200736;28;20296;-38
2022/09/03 05:06:42;;;;;;;7.43;3.40;;;;;;;16.33;51.32;101166.34;5205336;28;20881;-43
2022/09/03 05:09:14;;;;;;;3.97;3.20;;;;;;;16.29;51.27;101162.38;5201209;28;20048;-40
2022/09/03 05:11:48;;;;;;;5.07;3.42;;;;;;;16.25;51.25;101150.41;5198781;28;20127;-40
2022/09/03 05:14:21;;;;;;;6.57;2.78;;;;;;;16.33;51.25;101164.50;5198108;28;20049;-42
2022/09/03 05:16:54;;;;;;;;;;;;;;;16.43;51.02;101166.91;5197876;28;20455;-46
2022/09/03 05:19:26;;;;;;;6.45;3.80;;;;;;;16.42;51.07;101159.13;5194845;28;19920;-45
2022/09/03 05:22:06;;;;;;;4.75;3.20;;;;;;;16.45;51.00;101153.44;5200102;28;20388;-43
2022/09/03 05:24:39;;;;;;;5.45;3.10;;;;;;;16.52;51.04;101165.84;5199209;28;20123;-41
2022/09/03 05:27:15;;;;;;;16.90;4.60;;;;;;;16.44;50.96;101149.91;5210552;28;20127;-43
2022/09/03 05:29:48;;;;;;;4.15;3.05;;;;;;;16.58;50.88;101167.78;5198491;28;20530;-46
2022/09/03 05:32:21;;;;;;;3.92;3.08;;;;;;;16.62;50.80;101175.41;5201323;28;20048;-41
2022/09/03 05:34:53;;;;;;;5.05;3.10;;;;;;;16.66;50.71;101166.88;5197709;28;20546;-40
2022/09/03 05:37:26;;;;;;;13.55;3.10;;;;;;;16.71;50.56;101166.34;5199876;28;20075;-41
2022/09/03 05:39:58;;;;;;;6.30;3.13;;;;;;;16.71;50.38;101166.34;5191215;28;20041;-38
2022/09/03 05:43:25;;;;;;;5.47;2.95;;;;;;;16.79;50.33;101171.63;5216018;28;20165;-39
2022/09/03 05:46:01;;;;;;;4.40;1.95;;;;;;;16.81;50.17;101167.75;5197208;28;20137;-41
2022/09/03 05:48:35;;;;;;;6.68;2.67;;;;;;;16.80;50.26;101159.94;5197306;28;20068;-44
2022/09/03 05:51:23;;;;;;;4.43;2.35;;;;;;;16.89;50.30;101166.84;5199863;28;20534;-41
2022/09/03 05:53:56;;;;;;;4.97;2.40;;;;;;;16.92;50.28;101169.16;5193097;28;20041;-39
2022/09/03 05:56:30;;;;;;;4.18;1.73;;;;;;;17.03;50.12;101162.50;5200835;28;20133;-44
2022/09/03 05:59:08;;;;;;;8.60;3.10;;;;;;;17.08;49.90;101162.78;5203474;28;20142;-48
2022/09/03 06:01:42;;;;;;;8.02;2.30;;;;;;;17.11;49.75;101166.94;5207156;28;20048;-43
2022/09/03 06:04:16;;;;;;;8.65;2.42;;;;;;;17.22;49.81;101175.31;5184907;28;20049;-42
2022/09/03 06:06:49;;;;;;;5.10;2.50;;;;;;;17.27;49.74;101174.75;5186174;28;20547;-43
2022/09/03 06:09:22;;;;;;;3.95;2.00;;;;;;;17.31;49.36;101170.69;5186693;28;20150;-43
2022/09/03 06:11:55;;;;;;;2.20;1.73;;;;;;;17.32;49.37;101158.19;5184829;28;20095;-40
2022/09/03 06:14:28;;;;;;;2.50;2.08;;;;;;;17.85;49.20;101175.69;5188640;28;20088;-39
2022/09/03 06:17:01;;;;;;;7.10;2.75;;;;;;;19.33;46.84;101169.41;5189804;28;20069;-39
2022/09/03 06:19:33;;;;;;;4.63;2.08;;;;;;;20.87;45.18;101175.84;5188561;28;20131;-39
2022/09/03 06:22:06;;;;;;;2.78;1.65;;;;;;;22.23;43.32;101169.47;5186819;28;20095;-41
2022/09/03 06:24:38;;;;;;;2.95;1.60;;;;;;;23.35;40.80;101161.31;5189074;28;20065;-49
2022/09/03 06:27:11;;;;;;;3.50;1.70;;;;;;;24.21;38.22;101162.00;5185508;28;20096;-41
2022/09/03 06:29:44;;;;;;;4.90;1.98;;;;;;;24.67;37.48;101165.81;5201336;28;21638;-44
2022/09/03 06:32:18;;;;;;;3.20;1.20;;;;;;;25.50;36.44;101178.16;5193986;28;20065;-46
2022/09/03 06:34:50;;;;;;;4.75;1.33;;;;;;;26.15;35.51;101185.84;5191364;28;20471;-39
2022/09/03 06:37:23;;;;;;;5.82;1.17;;;;;;;26.81;34.43;101179.84;5187848;28;20115;-41
2022/09/03 06:39:55;;;;;;;3.08;1.35;;;;;;;27.34;33.46;101172.94;5186141;28;20133;-40
2022/09/03 06:42:28;;;;;;;6.10;1.40;;;;;;;27.66;32.01;101180.38;5181689;28;20119;-43
2022/09/03 06:45:02;;;;;;;;;;;;;;;28.15;32.02;101175.72;5195212;28;20114;-43
2022/09/03 06:47:34;;;;;;;3.53;1.00;;;;;;;28.79;31.00;101166.66;5181325;28;20309;-39
2022/09/03 06:50:08;;;;;;;8.13;1.48;;;;;;;29.59;30.40;101182.78;5202652;28;20515;-40
2022/09/03 06:52:40;;;;;;;5.63;1.83;;;;;;;30.52;29.09;101179.06;5198723;28;20040;-41
2022/09/03 06:55:13;;;;;;;1.67;1.10;;;;;;;30.84;28.89;101164.28;5197629;28;20036;-43
2022/09/03 06:57:45;;;;;;;;;;;;;;;31.60;28.18;101172.13;5195963;28;20380;-39
2022/09/03 07:00:20;;;;;;;2.07;0.70;;;;;;;31.72;26.96;101179.19;5194006;28;19975;-40
2022/09/03 07:02:58;;;;;;;6.43;1.10;;;;;;;31.42;26.66;101175.53;5197759;28;20286;-44
2022/09/03 07:05:32;;;;;;;2.53;1.27;;;;;;;32.12;26.40;101169.88;5182770;28;20503;-40
2022/09/03 07:08:04;;;;;;;4.25;1.15;;;;;;;32.98;24.88;101179.13;5185976;28;20044;-44
2022/09/03 07:10:37;;;;;;;;;;;;;;;32.77;25.49;101181.28;5184446;28;20525;-43
2022/09/03 07:13:09;;;;;;;4.60;1.08;;;;;;;33.21;25.61;101172.03;5185968;28;20071;-42
2022/09/03 07:15:43;;;;;;;;;;;;;;;33.57;24.66;101176.19;5186640;28;20517;-44
2022/09/03 07:18:18;;;;;;;6.05;0.98;;;;;;;33.64;24.87;101182.13;5186211;28;19976;-41
2022/09/03 07:20:52;;;;;;;4.20;1.00;;;;;;;33.57;23.96;101177.00;5187373;28;20187;-47
2022/09/03 07:23:25;;;;;;;5.80;1.30;;;;;;;33.43;24.17;101187.88;5184992;28;20448;-42
2022/09/03 07:25:58;;;;;;;;;;;;;;;33.40;23.97;101185.72;5187072;28;20103;-42
2022/09/03 07:28:32;;;;;;;5.00;0.88;;;;;;;33.63;23.91;101183.22;5186125;28;19928;-40
2022/09/03 07:31:09;;;;;;;1.65;1.10;;;;;;;33.32;24.28;101182.81;5189417;28;20504;-41
2022/09/03 07:33:42;;;;;;;4.30;1.05;;;;;;;32.92;24.40;101171.25;5183297;28;20352;-43
2022/09/03 07:36:17;;;;;;;1.65;0.80;;;;;;;33.03;24.28;101179.09;5185565;28;20048;-42
2022/09/03 07:38:50;;;;;;;3.80;0.90;;;;;;;33.10;24.01;101177.91;5185680;28;20040;-41
2022/09/03 07:41:23;;;;;;;3.80;1.00;;;;;;;33.04;24.43;101177.97;5185461;28;20492;-41
2022/09/03 07:43:56;;;;;;;8.85;1.73;;;;;;;32.94;24.44;101172.59;5181647;28;20465;-41
2022/09/03 07:46:30;;;;;;;3.78;1.15;;;;;;;33.01;24.07;101178.56;5182533;28;20070;-42
2022/09/03 07:49:04;;;;;;;5.78;1.33;;;;;;;33.18;23.96;101188.22;5181925;28;20040;-39
2022/09/03 07:51:38;;;;;;;4.72;1.30;;;;;;;33.03;24.31;101187.28;5186141;28;20473;-40
2022/09/03 07:54:11;;;;;;;6.93;1.25;;;;;;;32.51;24.54;101186.19;5184657;28;20057;-47
2022/09/03 07:56:44;;;;;;;3.65;1.30;;;;;;;32.98;24.52;101179.13;5187156;28;20439;-41
2022/09/03 07:59:16;;;;;;;3.35;1.33;;;;;;;33.05;24.72;101179.63;5182217;28;20714;-42
2022/09/03 08:01:50;;;;;;;2.95;1.02;;;;;;;33.28;24.36;101188.06;5179556;28;20104;-43
2022/09/03 08:04:23;;;;;;;4.15;1.52;;;;;;;33.43;23.83;101195.28;5200618;28;20040;-43
2022/09/03 08:06:58;;;;;;;1.92;1.15;;;;;;;32.76;23.62;101190.56;5196829;28;20036;-45
2022/09/03 08:09:32;;;;;;;3.20;1.08;;;;;;;32.51;24.20;101197.13;5199216;28;20044;-43
2022/09/03 08:12:05;;;;;;;3.47;1.08;;;;;;;33.10;23.97;101197.88;5199217;28;20040;-44
2022/09/03 08:14:37;;;;;;;2.28;1.08;;;;;;;34.02;23.72;101199.38;5199479;28;20201;-44
2022/09/03 08:17:12;;;;;;;1.73;1.10;;;;;;;34.27;23.07;101198.13;5193007;28;20048;-42
2022/09/03 08:19:46;;;;;;;3.22;1.25;;;;;;;34.47;23.30;101207.09;5180695;28;20204;-43
2022/09/03 08:22:19;;;;;;;2.80;0.88;;;;;;;34.62;23.10;101204.09;5184869;28;20480;-39
2022/09/03 08:24:53;;;;;;;2.92;1.15;;;;;;;34.56;22.88;101205.31;5184306;28;20326;-48
2022/09/03 08:27:26;;;;;;;6.28;1.15;;;;;;;34.36;23.11;101207.28;5182106;28;20056;-42
2022/09/03 08:29:58;;;;;;;4.50;1.05;;;;;;;34.51;23.03;101217.19;5183545;28;20493;-41
2022/09/03 08:32:34;;;;;;;3.17;1.20;;;;;;;34.78;22.70;101208.22;5184197;28;20501;-42
2022/09/03 08:35:09;;;;;;;6.03;1.42;;;;;;;34.65;22.66;101215.28;5183507;28;20492;-42
2022/09/03 08:37:41;;;;;;;7.38;1.80;;;;;;;34.14;23.01;101210.69;5185844;28;20492;-44
2022/09/03 08:40:14;;;;;;;3.55;1.25;;;;;;;33.91;22.98;101209.66;5185219;28;20064;-44
2022/09/03 08:43:00;;;;;;;2.13;1.20;;;;;;;33.56;23.66;101204.72;5185326;28;20044;-43
2022/09/03 08:45:37;;;;;;;2.42;1.00;;;;;;;33.37;23.67;101212.88;5182261;28;20049;-44
2022/09/03 08:48:15;;;;;;;2.10;1.38;;;;;;;32.99;24.08;101221.03;5182896;28;20418;-46
2022/09/03 08:50:54;;;;;;;4.63;1.67;;;;;;;32.55;24.40;101208.31;5180416;28;20198;-43
2022/09/03 08:53:36;;;;;;;3.15;0.93;;;;;;;32.62;24.10;101200.59;5183126;28;20033;-46
2022/09/03 08:56:14;;;;;;;8.35;1.30;;;;;;;32.40;24.13;101198.31;5183703;28;20033;-52
2022/09/03 08:58:46;;;;;;;8.32;1.42;;;;;;;31.75;24.98;101201.25;5180346;28;20037;-46
2022/09/03 09:01:41;;;;;;;3.80;0.95;;;;;;;31.45;24.98;101202.25;5180796;28;20053;-44
2022/09/03 09:04:30;;;;;;;4.00;1.15;;;;;;;30.74;25.74;101209.53;5197373;28;20649;-42
2022/09/03 09:07:13;;;;;;;3.97;1.20;;;;;;;30.39;26.04;101206.88;5198543;28;20044;-42
2022/09/03 09:09:56;;;;;;;4.15;1.27;;;;;;;30.01;26.61;101207.13;5200632;28;20516;-42
2022/09/03 09:12:38;;;;;;;1.92;1.35;;;;;;;29.53;26.93;101192.00;5198597;28;20036;-39
2022/09/03 09:15:17;;;;;;;4.30;1.17;;;;;;;29.33;26.93;101207.19;5201583;28;20546;-40
2022/09/03 09:18:09;;;;;;;3.45;1.00;;;;;;;28.83;27.80;101207.72;5197832;28;20068;-43
2022/09/03 09:20:52;;;;;;;3.28;0.90;;;;;;;27.84;28.99;101207.16;5200896;28;20049;-40
2022/09/03 09:23:30;;;;;;;5.82;1.40;;;;;;;27.26;29.66;101211.38;5202528;28;20037;-41
2022/09/03 09:26:10;;;;;;;1.42;1.10;;;;;;;26.71;30.60;101198.66;5205521;28;20044;-45
2022/09/03 09:28:45;;;;;;;4.53;1.10;;;;;;;26.22;31.57;101216.28;5200252;28;20379;-43
2022/09/03 09:31:19;;;;;;;3.17;1.20;;;;;;;25.85;32.14;101201.53;5203297;28;20139;-45
2022/09/03 09:33:51;;;;;;;4.05;1.23;;;;;;;25.51;32.69;101196.00;5205061;28;20404;-39
2022/09/03 09:36:27;;;;;;;;;;;;;;;25.45;32.95;101207.78;5203087;28;20048;-33
2022/09/03 09:39:09;;;;;;;6.22;1.52;;;;;;;25.53;32.89;101200.13;5201563;28;20392;-40
2022/09/03 09:41:42;;;;;;;6.30;1.70;;;;;;;25.80;32.83;101212.22;5205415;28;20373;-45
2022/09/03 09:44:21;;;;;;;4.70;1.50;;;;;;;25.74;32.85;101193.22;5217062;28;20526;-43
2022/09/03 09:47:05;;;;;;;4.13;1.70;;;;;;;26.03;32.50;101204.03;5205564;28;20416;-43
2022/09/03 09:49:50;;;;;;;7.07;1.38;;;;;;;26.14;32.39;101200.47;5208718;28;20113;-43
2022/09/03 09:52:28;;;;;;;7.43;1.00;;;;;;;25.88;32.56;101201.88;5208797;28;20080;-45
2022/09/03 09:55:16;;;;;;;4.55;0.98;;;;;;;25.92;32.33;101200.34;5196053;28;20445;-44
2022/09/03 09:57:53;;;;;;;10.60;1.70;;;;;;;25.91;32.58;101195.97;5206303;28;20489;-41
2022/09/03 10:00:25;;;;;;;3.35;1.73;;;;;;;25.71;32.72;101203.72;5200530;28;20040;-40
2022/09/03 10:02:58;;;;;;;;;;;;;;;25.57;32.83;101203.16;5204756;28;20052;-45
2022/09/03 10:05:33;;;;;;;5.22;1.60;;;;;;;25.62;32.87;101197.84;5205116;28;20007;-45
2022/09/03 10:08:20;;;;;;;4.88;2.13;;;;;;;25.89;32.70;101214.38;5206678;28;20055;-42
2022/09/03 10:10:52;;;;;;;5.43;1.23;;;;;;;25.77;32.71;101192.72;5204782;28;20090;-46
2022/09/03 10:13:29;;;;;;;1.80;1.20;;;;;;;25.84;32.88;101210.72;5197689;28;20284;-40
2022/09/03 10:16:07;;;;;;;8.63;1.50;;;;;;;25.82;32.96;101202.84;5203225;28;20113;-43
2022/09/03 10:18:44;;;;;;;5.05;1.25;;;;;;;25.84;32.92;101191.78;5204682;28;20040;-46
2022/09/03 10:21:24;;;;;;;9.23;1.98;;;;;;;25.69;33.18;101195.81;5204898;28;20049;-42
2022/09/03 10:24:14;;;;;;;5.20;1.38;;;;;;;25.88;32.80;101187.53;5202672;28;20060;-41
2022/09/03 10:26:46;;;;;;;8.20;1.30;;;;;;;26.07;32.58;101188.94;5189397;28;20048;-43
2022/09/03 10:29:24;;;;;;;6.82;1.20;;;;;;;26.26;32.47;101192.25;5209871;28;20098;-43
2022/09/03 10:32:16;;;;;;;8.77;1.90;;;;;;;26.33;32.50;101194.81;5199102;28;20409;-42
2022/09/03 10:35:02;;;;;;;2.50;1.30;;;;;;;26.33;32.54;101192.09;5188750;28;20059;-42
2022/09/03 10:37:40;;;;;;;1.85;1.20;;;;;;;26.45;32.43;101190.94;5201857;28;20051;-44
2022/09/03 10:40:29;;;;;;;10.80;1.88;;;;;;;26.56;32.51;101196.53;5202233;28;20435;-43
2022/09/03 10:43:23;;;;;;;2.75;1.52;;;;;;;26.60;32.51;101186.84;5199218;28;20377;-42
2022/09/03 10:46:05;;;;;;;4.55;1.40;;;;;;;26.50;32.57;101203.75;5193948;28;20735;-43
2022/09/03 10:49:22;;;;;;;5.63;1.70;;;;;;;26.30;32.57;101187.19;5197633;28;20492;-45
2022/09/03 10:52:07;;;;;;;2.42;1.30;;;;;;;26.20;32.84;101194.06;5190049;28;20048;-33
2022/09/03 10:54:54;;;;;;;3.15;1.17;;;;;;;26.08;32.92;101195.19;5186219;28;20047;-48
2022/09/03 10:57:44;;;;;;;9.60;1.30;;;;;;;26.18;33.01;101190.78;5187513;28;20417;-43
2022/09/03 11:00:18;;;;;;;1.80;1.50;;;;;;;26.17;32.89;101188.31;5198217;28;20044;-47
2022/09/03 11:03:34;;;;;;;6.18;1.75;;;;;;;26.22;32.92;101191.91;5194530;28;20390;-44
2022/09/03 11:06:12;;;;;;;6.93;1.55;;;;;;;26.32;32.94;101190.44;5159249;28;20071;-46
2022/09/03 11:08:53;;;;;;;3.33;1.05;;;;;;;26.61;32.83;101186.59;5198703;28;20141;-47
2022/09/03 11:11:32;;;;;;;9.82;2.00;;;;;;;26.68;32.93;101189.97;5188726;28;20048;-43
2022/09/03 11:14:10;;;;;;;1.85;1.17;;;;;;;26.64;32.99;101182.59;5201663;28;20075;-44
2022/09/03 11:16:48;;;;;;;9.93;1.27;;;;;;;26.71;33.08;101187.84;5196659;28;20519;-45
2022/09/03 11:19:30;;;;;;;3.80;1.25;;;;;;;26.82;33.05;101195.03;5197214;28;20127;-41
2022/09/03 11:22:05;;;;;;;8.13;1.77;;;;;;;26.80;33.17;101191.75;5191550;28;20049;-46
2022/09/03 11:24:39;;;;;;;3.13;1.58;;;;;;;26.66;33.42;101178.56;5190910;28;20457;-42
2022/09/03 11:27:45;;;;;;;3.63;1.35;;;;;;;26.55;33.47;101179.47;5193086;28;20102;-44
2022/09/03 11:30:29;;;;;;;5.70;1.95;;;;;;;26.62;33.45;101180.13;5191992;28;20431;-45
2022/09/03 11:33:08;;;;;;;8.25;1.55;;;;;;;26.53;33.64;101178.91;5189418;28;20096;-42
2022/09/03 11:35:42;;;;;;;6.55;1.25;;;;;;;26.63;33.58;101181.78;5198166;28;20203;-47
2022/09/03 11:38:26;;;;;;;6.10;1.23;;;;;;;26.82;33.43;101178.75;5198000;28;20045;-44
2022/09/03 11:41:03;;;;;;;4.40;1.65;;;;;;;27.03;33.48;101180.69;5193195;28;20158;-43
2022/09/03 11:43:36;;;;;;;4.68;1.73;;;;;;;27.16;33.11;101173.28;5196445;28;20420;-44
2022/09/03 11:46:27;;;;;;;3.53;1.23;;;;;;;26.99;32.94;101182.25;5198553;28;20392;-45
2022/09/03 11:49:12;;;;;;;2.30;1.08;;;;;;;27.06;33.10;101169.31;5191847;28;20056;-44
2022/09/03 11:51:44;;;;;;;4.50;1.33;;;;;;;27.11;33.00;101172.13;5196778;28;21181;-45
2022/09/03 11:54:27;;;;;;;3.53;1.33;;;;;;;27.27;32.99;101156.88;5192779;28;20132;-44
2022/09/03 11:57:12;;;;;;;3.78;1.23;;;;;;;27.38;33.12;101163.25;5190633;28;20131;-49
2022/09/03 11:59:45;;;;;;;5.57;1.50;;;;;;;27.43;33.01;101162.47;5183037;28;20048;-46
2022/09/03 12:02:28;;;;;;;6.28;1.52;;;;;;;27.41;32.61;101170.88;5196890;28;20344;-49
2022/09/03 12:05:22;;;;;;;10.00;1.70;;;;;;;27.35;32.69;101171.91;5191123;28;20478;-43
2022/09/03 12:08:11;;;;;;;3.05;0.93;;;;;;;27.38;32.46;101165.13;5191586;28;20623;-41
2022/09/03 12:10:56;;;;;;;7.15;2.08;;;;;;;27.39;32.40;101164.06;5195047;28;20177;-45
2022/09/03 12:13:49;;;;;;;3.35;1.08;;;;;;;27.27;32.30;101172.34;5194501;28;20371;-39
2022/09/03 12:16:46;;;;;;;4.57;0.98;;;;;;;27.21;32.44;101167.91;5194520;28;20484;-39
2022/09/03 12:19:31;;;;;;;6.95;1.42;;;;;;;27.24;32.32;101164.72;5193504;28;20063;-41
2022/09/03 12:22:04;;;;;;;1.75;1.00;;;;;;;27.29;32.19;101172.91;5195602;28;20059;-46
2022/09/03 12:24:36;;;;;;;1.80;1.02;;;;;;;27.27;32.07;101164.19;5193498;28;20052;-43
2022/09/03 12:27:12;;;;;;;2.95;1.45;;;;;;;27.31;31.58;101160.72;5183663;28;20081;-42
2022/09/03 12:29:55;;;;;;;5.65;1.55;;;;;;;27.42;31.49;101164.38;5202155;28;20384;-43